Time;durP1;ratioP1;P1;durP2;ratioP2;P2;SDS_P1;SDS_P2;PMS_P1;PMS_P2;Temp;Humidity;BMP_temperature;BMP_pressure;BME280_temperature;BME280_humidity;BME280_pressure;Samples;Min_cycle;Max_cycle;Signal;HPM_P1;HPM_P2
2021/05/11 00:00:30;;;;;;;3.92;3.13;;;13.90;54.30;;;;;;5020947;28;20507;-64
2021/05/11 00:02:57;;;;;;;3.17;2.90;;;13.90;54.60;;;;;;5037707;28;20053;-64
2021/05/11 00:05:24;;;;;;;3.40;2.97;;;13.90;54.40;;;;;;5021184;28;20022;-64
2021/05/11 00:07:50;;;;;;;3.75;2.72;;;14.00;54.20;;;;;;5031995;28;20025;-64
2021/05/11 00:10:16;;;;;;;2.70;2.50;;;14.00;53.90;;;;;;5037818;28;20037;-64
2021/05/11 00:12:41;;;;;;;3.22;2.80;;;14.00;54.30;;;;;;5038911;28;20060;-64
2021/05/11 00:15:07;;;;;;;3.95;2.75;;;14.00;53.40;;;;;;5038587;28;20481;-64
2021/05/11 00:17:33;;;;;;;3.53;3.10;;;14.10;53.40;;;;;;5038955;28;20068;-64
2021/05/11 00:19:59;;;;;;;3.88;3.13;;;14.10;53.30;;;;;;5037280;28;20033;-64
2021/05/11 00:22:25;;;;;;;3.60;2.92;;;14.10;53.40;;;;;;5039046;28;20033;-64
2021/05/11 00:24:51;;;;;;;5.05;2.63;;;14.10;53.20;;;;;;5034258;28;20088;-64
2021/05/11 00:27:17;;;;;;;3.22;2.75;;;14.10;52.90;;;;;;5035204;28;20029;-64
2021/05/11 00:29:43;;;;;;;3.03;2.50;;;14.10;52.80;;;;;;5035439;28;20083;-64
2021/05/11 00:32:08;;;;;;;2.80;2.50;;;14.10;52.60;;;;;;5035686;28;20025;-64
2021/05/11 00:34:34;;;;;;;3.25;2.80;;;14.10;52.90;;;;;;5034963;28;20117;-64
2021/05/11 00:36:59;;;;;;;5.00;3.05;;;14.10;52.50;;;;;;5030152;28;20112;-64
2021/05/11 00:39:25;;;;;;;3.80;3.13;;;14.10;52.30;;;;;;5035478;28;20106;-64
2021/05/11 00:41:51;;;;;;;3.00;2.65;;;14.00;52.10;;;;;;5035483;28;20388;-64
2021/05/11 00:44:24;;;;;;;3.65;2.60;;;14.10;52.20;;;;;;5035434;28;20037;-64
2021/05/11 00:47:04;;;;;;;3.83;3.10;;;14.10;52.10;;;;;;5035004;28;20445;-64
2021/05/11 00:49:32;;;;;;;3.25;2.80;;;14.00;52.00;;;;;;5035364;28;20017;-64
2021/05/11 00:52:00;;;;;;;2.60;2.40;;;14.00;52.10;;;;;;5017890;28;20061;-64
2021/05/11 00:54:27;;;;;;;3.63;2.78;;;14.00;52.10;;;;;;5015270;28;20120;-64
2021/05/11 00:56:53;;;;;;;2.92;2.33;;;14.00;52.00;;;;;;5015219;28;20509;-64
2021/05/11 00:59:26;;;;;;;5.03;2.83;;;14.00;52.10;;;;;;5015377;28;20029;-64
2021/05/11 01:01:57;;;;;;;4.43;3.00;;;14.00;52.50;;;;;;4997784;28;20057;-64
2021/05/11 01:04:24;;;;;;;3.40;3.10;;;14.00;52.50;;;;;;5033673;28;20026;-64
2021/05/11 01:06:50;;;;;;;3.88;2.70;;;14.00;52.70;;;;;;5021236;28;20038;-64
2021/05/11 01:09:16;;;;;;;3.70;2.88;;;14.00;52.40;;;;;;5015372;28;20022;-64
2021/05/11 01:11:42;;;;;;;3.15;2.75;;;14.00;52.70;;;;;;5015171;28;20034;-64
2021/05/11 01:14:08;;;;;;;2.83;2.42;;;13.90;52.60;;;;;;5015130;28;20022;-64
2021/05/11 01:16:35;;;;;;;3.13;2.83;;;13.90;52.60;;;;;;5015159;28;20080;-64
2021/05/11 01:19:51;;;;;;;3.85;2.80;;;13.90;52.70;;;;;;5015184;28;20069;-64
2021/05/11 02:23:06;;;;;;;3.00;2.50;;;13.90;53.00;;;;;;4974918;28;20042;-64
2021/05/11 02:25:32;;;;;;;4.32;2.70;;;13.90;53.00;;;;;;4974608;28;20027;-64
2021/05/11 02:27:58;;;;;;;3.92;2.78;;;13.90;52.90;;;;;;4974804;28;20101;-64
2021/05/11 02:30:23;;;;;;;3.15;2.80;;;13.90;53.00;;;;;;4974426;28;20383;-64
2021/05/11 02:32:49;;;;;;;3.00;2.67;;;13.90;52.90;;;;;;4974572;28;20029;-64
2021/05/11 02:35:17;;;;;;;4.97;2.88;;;13.90;52.70;;;;;;4984708;28;20398;-64
2021/05/11 02:37:44;;;;;;;3.08;2.72;;;13.90;53.10;;;;;;4989534;28;20105;-64
2021/05/11 02:40:12;;;;;;;3.58;3.05;;;13.90;53.40;;;;;;4974505;28;20027;-64
2021/05/11 02:42:39;;;;;;;3.05;2.75;;;13.90;53.90;;;;;;4974404;28;20037;-64
2021/05/11 02:45:11;;;;;;;3.78;3.10;;;13.90;54.10;;;;;;4974262;28;20033;-64
2021/05/11 02:47:48;;;;;;;3.08;2.75;;;13.90;54.30;;;;;;4973747;28;20034;-64
2021/05/11 02:50:14;;;;;;;4.13;3.25;;;13.90;54.40;;;;;;4974687;28;20023;-64
2021/05/11 02:52:40;;;;;;;3.97;2.85;;;13.90;54.30;;;;;;4974551;28;20415;-64
2021/05/11 02:55:06;;;;;;;3.22;2.85;;;13.80;54.40;;;;;;5001877;28;20046;-64
2021/05/11 02:57:31;;;;;;;4.18;2.72;;;13.80;54.40;;;;;;4995494;28;20049;-64
2021/05/11 02:59:57;;;;;;;4.03;3.03;;;13.80;54.40;;;;;;5013407;28;20042;-64
2021/05/11 03:02:23;;;;;;;4.93;2.85;;;13.80;54.90;;;;;;5013282;28;20026;-64
2021/05/11 03:04:48;;;;;;;3.03;2.70;;;13.80;54.20;;;;;;5013278;28;20076;-64
2021/05/11 03:07:14;;;;;;;4.85;3.25;;;13.80;54.10;;;;;;5013063;28;20397;-64
2021/05/11 03:09:40;;;;;;;3.92;2.70;;;13.70;54.10;;;;;;5013197;28;20021;-64
2021/05/11 03:12:06;;;;;;;3.20;2.90;;;13.70;54.30;;;;;;5013493;28;20026;-64
2021/05/11 03:14:33;;;;;;;7.35;3.20;;;13.80;54.30;;;;;;5013129;28;20481;-64
2021/05/11 03:16:59;;;;;;;3.67;2.90;;;13.80;54.30;;;;;;5013058;28;20022;-64
2021/05/11 03:19:25;;;;;;;4.13;3.10;;;13.90;54.50;;;;;;5013352;28;20441;-64
2021/05/11 03:21:50;;;;;;;4.05;3.03;;;14.00;54.20;;;;;;5013047;28;20061;-64
2021/05/11 03:24:16;;;;;;;4.00;3.10;;;14.00;53.80;;;;;;5013121;28;20116;-64
2021/05/11 03:26:42;;;;;;;3.97;2.53;;;14.10;53.80;;;;;;5012872;28;20053;-64
2021/05/11 03:29:08;;;;;;;3.60;2.90;;;14.10;53.40;;;;;;5013268;28;20497;-64
2021/05/11 03:31:34;;;;;;;3.70;2.90;;;14.20;53.10;;;;;;5013051;28;20018;-64
2021/05/11 03:34:00;;;;;;;3.42;2.63;;;14.20;52.90;;;;;;5021382;28;20021;-64
2021/05/11 03:36:25;;;;;;;3.25;2.88;;;14.20;52.70;;;;;;5014465;28;20052;-64
2021/05/11 03:38:53;;;;;;;3.30;2.58;;;14.30;52.60;;;;;;5012896;28;20482;-64
2021/05/11 03:41:27;;;;;;;2.88;2.47;;;14.30;52.50;;;;;;5012805;28;20026;-64
2021/05/11 03:44:01;;;;;;;3.00;2.70;;;14.30;52.40;;;;;;5012977;28;20159;-64
2021/05/11 03:46:26;;;;;;;3.25;2.90;;;14.30;52.30;;;;;;5012712;28;20030;-64
2021/05/11 03:48:52;;;;;;;4.32;2.80;;;14.30;52.50;;;;;;5012826;28;20040;-64
2021/05/11 03:51:18;;;;;;;5.22;3.13;;;14.40;52.60;;;;;;5012875;28;20057;-64
2021/05/11 03:53:44;;;;;;;4.50;2.80;;;14.40;52.60;;;;;;5012946;28;20121;-64
2021/05/11 03:56:10;;;;;;;3.17;2.55;;;14.50;52.60;;;;;;5012641;28;20030;-64
2021/05/11 03:58:35;;;;;;;2.72;2.53;;;14.60;52.40;;;;;;5014467;28;20517;-64
2021/05/11 04:01:01;;;;;;;3.70;2.90;;;14.60;52.20;;;;;;5016157;28;20467;-64
2021/05/11 04:03:27;;;;;;;3.28;2.70;;;14.70;52.20;;;;;;5016209;28;20095;-64
2021/05/11 04:05:54;;;;;;;3.22;2.50;;;14.80;52.60;;;;;;5015784;28;20030;-64
2021/05/11 04:10:58;;;;;;;4.65;2.72;;;14.80;52.50;;;;;;5016070;28;20532;-64
2021/05/11 04:18:36;;;;;;;2.67;2.47;;;14.80;52.60;;;;;;5035852;28;20056;-64
2021/05/11 04:21:02;;;;;;;3.47;2.50;;;14.80;52.90;;;;;;5035424;28;20112;-64
2021/05/11 04:23:27;;;;;;;2.83;2.45;;;14.80;52.80;;;;;;5035498;28;20033;-64
2021/05/11 04:25:53;;;;;;;3.28;2.70;;;14.70;52.70;;;;;;5035092;28;20029;-64
2021/05/11 04:28:19;;;;;;;2.65;2.45;;;14.70;52.80;;;;;;5035575;28;20048;-64
2021/05/11 04:30:44;;;;;;;4.05;2.63;;;14.70;52.90;;;;;;5035106;28;20367;-64
2021/05/11 04:33:11;;;;;;;3.40;2.70;;;14.70;52.90;;;;;;5033638;28;20516;-64
2021/05/11 04:35:37;;;;;;;4.70;3.00;;;14.70;53.20;;;;;;5023740;28;20029;-64
2021/05/11 04:38:03;;;;;;;4.10;2.90;;;14.70;53.30;;;;;;5020148;28;20109;-64
2021/05/11 04:40:28;;;;;;;3.17;2.60;;;14.60;53.40;;;;;;5015314;28;20411;-64
2021/05/11 04:42:54;;;;;;;3.90;2.67;;;14.60;53.50;;;;;;5015414;28;20026;-64
2021/05/11 04:45:22;;;;;;;4.50;2.67;;;14.70;53.60;;;;;;5020201;28;20028;-64
2021/05/11 04:47:50;;;;;;;3.20;2.47;;;14.60;53.60;;;;;;5034999;28;20033;-65
2021/05/11 04:50:19;;;;;;;4.35;2.85;;;14.70;53.60;;;;;;5034586;28;20045;-65
2021/05/11 04:52:45;;;;;;;3.60;2.50;;;14.70;53.60;;;;;;5034981;28;20065;-65
2021/05/11 04:55:12;;;;;;;2.97;2.53;;;14.70;53.60;;;;;;5016973;28;20057;-65
2021/05/11 04:57:38;;;;;;;4.60;3.05;;;14.70;53.70;;;;;;5015051;28;20034;-65
2021/05/11 05:00:05;;;;;;;4.90;3.78;;;14.70;53.70;;;;;;5015411;28;20157;-65
2021/05/11 05:02:32;;;;;;;4.45;2.92;;;14.70;54.00;;;;;;5015201;28;20104;-65
2021/05/11 05:04:58;;;;;;;3.63;2.90;;;14.70;54.10;;;;;;5014935;28;20053;-65
2021/05/11 05:07:23;;;;;;;4.68;2.80;;;14.70;54.40;;;;;;5014843;28;20529;-65
2021/05/11 05:09:49;;;;;;;2.78;2.42;;;14.80;54.40;;;;;;5014237;28;20036;-65
2021/05/11 05:12:15;;;;;;;3.20;2.42;;;14.80;54.00;;;;;;5014810;28;20053;-65
2021/05/11 05:14:40;;;;;;;3.40;2.40;;;14.90;54.10;;;;;;5015045;28;20037;-64
2021/05/11 05:17:06;;;;;;;6.15;2.85;;;14.90;53.80;;;;;;5014757;28;20175;-63
2021/05/11 05:19:34;;;;;;;6.93;3.25;;;15.00;53.70;;;;;;4997277;28;20113;-63
2021/05/11 05:22:00;;;;;;;3.35;2.95;;;15.00;53.90;;;;;;5014472;28;20381;-64
2021/05/11 05:24:39;;;;;;;3.72;2.65;;;15.00;53.90;;;;;;5014238;28;20112;-64
2021/05/11 05:28:08;;;;;;;3.17;2.25;;;15.10;54.00;;;;;;5006367;28;20030;-64
2021/05/11 05:29:59;;;;;;;2.60;2.30;;;15.10;54.20;;;;;;5001175;28;20113;-66
2021/05/11 05:32:25;;;;;;;3.00;2.10;;;15.20;54.20;;;;;;5014675;28;20504;-64
2021/05/11 05:34:50;;;;;;;3.03;2.45;;;15.20;54.30;;;;;;5018807;28;20102;-64
2021/05/11 05:37:16;;;;;;;3.15;2.80;;;15.20;54.10;;;;;;5014351;28;20030;-64
2021/05/11 05:39:47;;;;;;;2.88;2.67;;;15.20;54.20;;;;;;5026077;28;20036;-64
2021/05/11 05:42:13;;;;;;;3.13;2.55;;;15.30;54.10;;;;;;5032322;28;20385;-63
2021/05/11 05:44:38;;;;;;;3.90;2.65;;;15.30;54.20;;;;;;5024718;28;20038;-63
2021/05/11 05:47:04;;;;;;;3.33;2.38;;;15.30;54.00;;;;;;5023881;28;20029;-63
2021/05/11 05:49:41;;;;;;;2.60;2.40;;;15.40;54.10;;;;;;5020180;28;20461;-63
2021/05/11 05:52:10;;;;;;;2.88;2.58;;;15.40;54.60;;;;;;5019611;28;20088;-64
2021/05/11 05:54:35;;;;;;;3.35;2.60;;;15.40;54.00;;;;;;5015077;28;20042;-64
2021/05/11 05:57:01;;;;;;;7.47;2.70;;;15.40;54.10;;;;;;5021620;28;20041;-65
2021/05/11 05:59:27;;;;;;;2.88;2.50;;;15.50;54.20;;;;;;5021816;28;20390;-65
2021/05/11 06:01:53;;;;;;;2.42;2.22;;;15.50;54.30;;;;;;5017897;28;20105;-65
2021/05/11 06:04:26;;;;;;;2.50;2.15;;;15.60;54.20;;;;;;5017212;28;20120;-62
2021/05/11 06:06:52;;;;;;;2.83;2.50;;;15.70;54.20;;;;;;5014575;28;20026;-64
2021/05/11 06:09:19;;;;;;;3.13;2.30;;;15.80;54.20;;;;;;5019571;28;20327;-65
2021/05/11 06:11:49;;;;;;;2.35;2.15;;;15.80;54.20;;;;;;5017305;28;20029;-67
2021/05/11 06:14:22;;;;;;;2.55;2.20;;;16.00;54.10;;;;;;5021089;28;20037;-65
2021/05/11 06:19:32;;;;;;;2.88;2.28;;;16.10;54.00;;;;;;5024033;28;20398;-60
2021/05/11 06:21:58;;;;;;;2.50;2.30;;;16.30;54.00;;;;;;5019034;28;20025;-62
2021/05/11 06:24:24;;;;;;;4.47;2.40;;;16.30;53.90;;;;;;5017165;28;20466;-61
2021/05/11 06:26:51;;;;;;;3.00;2.70;;;16.40;54.00;;;;;;5018265;28;20700;-63
2021/05/11 06:29:18;;;;;;;3.92;2.80;;;16.50;54.10;;;;;;5018290;28;20504;-64
2021/05/11 06:31:44;;;;;;;3.38;2.28;;;16.60;54.00;;;;;;5019022;28;20103;-63
2021/05/11 06:34:10;;;;;;;2.88;2.10;;;16.70;54.30;;;;;;5020627;28;20021;-63
2021/05/11 06:36:36;;;;;;;2.47;2.28;;;16.90;54.30;;;;;;5019366;28;20064;-63
2021/05/11 06:39:07;;;;;;;2.55;2.10;;;17.10;54.30;;;;;;5018036;28;20025;-63
2021/05/11 06:41:36;;;;;;;3.22;2.38;;;17.30;54.10;;;;;;5024676;28;20051;-63
2021/05/11 06:44:07;;;;;;;2.90;2.50;;;17.30;53.50;;;;;;5017041;28;20137;-62
2021/05/11 06:47:08;;;;;;;2.63;2.28;;;17.30;53.00;;;;;;5018562;28;20026;-64
2021/05/11 06:54:44;;;;;;;2.65;2.22;;;17.00;53.60;;;;;;5020019;28;20051;-66
2021/05/11 06:57:09;;;;;;;3.53;2.45;;;17.00;53.90;;;;;;5013291;28;20040;-64
2021/05/11 06:59:35;;;;;;;2.35;2.15;;;17.00;54.00;;;;;;5019056;28;20026;-62
2021/05/11 07:02:02;;;;;;;3.42;2.70;;;17.00;53.90;;;;;;5020167;28;20390;-66
2021/05/11 07:04:28;;;;;;;3.25;2.70;;;17.00;54.00;;;;;;5019093;28;20038;-62
2021/05/11 07:06:54;;;;;;;2.33;2.13;;;17.00;54.30;;;;;;5023502;28;20355;-62
2021/05/11 07:09:33;;;;;;;4.22;2.58;;;17.00;54.40;;;;;;5025881;28;20488;-63
2021/05/11 07:14:24;;;;;;;2.90;2.17;;;17.10;55.40;;;;;;5018946;28;20017;-62
2021/05/11 07:16:50;;;;;;;2.95;2.20;;;17.10;54.80;;;;;;5015177;28;20038;-63
2021/05/11 07:19:16;;;;;;;2.30;2.10;;;17.20;55.30;;;;;;5014724;28;20152;-64
2021/05/11 07:21:41;;;;;;;2.38;2.00;;;17.40;55.50;;;;;;5010682;28;20053;-63
2021/05/11 07:24:07;;;;;;;2.90;2.40;;;17.50;55.60;;;;;;5013890;28;20049;-64
2021/05/11 07:26:37;;;;;;;2.30;2.10;;;17.60;55.70;;;;;;5014094;28;20034;-60
2021/05/11 07:31:31;;;;;;;2.92;1.98;;;17.90;55.60;;;;;;5017054;28;20036;-64
2021/05/11 07:33:58;;;;;;;2.53;1.92;;;18.10;55.20;;;;;;5016410;28;20034;-64
2021/05/11 07:36:24;;;;;;;2.22;2.03;;;18.30;55.40;;;;;;5023560;28;20167;-63
2021/05/11 07:38:50;;;;;;;1.77;1.67;;;18.40;55.30;;;;;;5023838;28;20068;-63
2021/05/11 07:41:20;;;;;;;2.55;1.92;;;18.60;55.40;;;;;;4997253;28;20037;-64
2021/05/11 07:43:51;;;;;;;2.13;1.80;;;18.70;55.20;;;;;;5020085;28;20036;-65
2021/05/11 08:10:35;;;;;;;1.95;1.75;;;19.40;55.60;;;;;;5017285;28;20111;-66
2021/05/11 08:15:58;;;;;;;2.00;1.75;;;19.50;55.90;;;;;;5011499;28;20072;-64
2021/05/11 08:29:05;;;;;;;1.73;1.60;;;20.00;55.40;;;;;;5006641;28;20788;-64
2021/05/11 08:31:31;;;;;;;2.13;1.92;;;20.10;55.10;;;;;;5016827;28;20022;-65
2021/05/11 08:33:56;;;;;;;2.85;1.48;;;20.20;54.80;;;;;;5021988;28;20152;-65
2021/05/11 08:36:22;;;;;;;2.65;1.90;;;20.20;54.60;;;;;;5016192;28;20034;-64
2021/05/11 08:38:47;;;;;;;2.10;1.88;;;20.30;54.30;;;;;;5021246;28;20030;-65
2021/05/11 08:41:15;;;;;;;4.13;2.08;;;20.30;54.10;;;;;;5018939;28;20539;-64
2021/05/11 08:43:44;;;;;;;2.42;1.90;;;20.30;53.90;;;;;;5013978;28;20041;-63
2021/05/11 08:46:11;;;;;;;2.35;1.92;;;20.40;53.80;;;;;;5009617;28;20713;-64
2021/05/11 08:48:37;;;;;;;3.17;1.95;;;20.40;53.60;;;;;;5014520;28;20520;-64
2021/05/11 08:51:14;;;;;;;2.53;1.83;;;20.40;53.50;;;;;;5014819;28;20064;-64
2021/05/11 09:26:52;;;;;;;2.88;1.90;;;20.30;54.20;;;;;;5007006;28;20041;-64
2021/05/11 10:32:05;;;;;;;6.70;2.07;;;19.90;55.20;;;;;;5013201;28;20048;-65
2021/05/11 10:38:25;;;;;;;3.15;1.80;;;19.90;55.50;;;;;;5013080;28;20029;-65
2021/05/11 10:48:19;;;;;;;3.90;1.63;;;20.10;54.60;;;;;;5015072;28;20115;-63
2021/05/11 10:50:47;;;;;;;3.42;1.80;;;20.10;54.40;;;;;;5016241;28;20037;-64
2021/05/11 10:53:45;;;;;;;4.43;2.08;;;20.20;54.40;;;;;;5012765;28;20033;-61
2021/05/11 10:56:41;;;;;;;5.78;3.35;;;20.30;54.50;;;;;;5006432;28;21001;-65
2021/05/11 11:04:32;;;;;;;5.22;2.20;;;20.40;53.60;;;;;;5011707;28;20071;-61
2021/05/11 11:07:01;;;;;;;3.47;1.83;;;20.50;53.20;;;;;;5009449;28;20124;-63
2021/05/11 11:09:38;;;;;;;1.92;1.67;;;20.60;53.60;;;;;;5009130;28;20040;-62
2021/05/11 11:12:09;;;;;;;6.45;2.40;;;20.60;53.60;;;;;;5001605;28;20057;-62
2021/05/11 11:14:44;;;;;;;4.53;2.20;;;20.70;53.30;;;;;;5008381;28;20040;-65
2021/05/11 11:17:12;;;;;;;6.38;2.50;;;20.70;53.30;;;;;;5013314;28;20365;-63
2021/05/11 11:19:38;;;;;;;3.50;2.00;;;20.70;53.60;;;;;;5013458;28;20108;-66
2021/05/11 11:24:59;;;;;;;3.45;1.95;;;20.80;53.40;;;;;;5011880;28;20800;-61
2021/05/11 11:27:30;;;;;;;6.78;2.22;;;20.80;53.00;;;;;;5011848;28;20398;-63
2021/05/11 11:30:09;;;;;;;4.72;1.80;;;20.80;52.60;;;;;;5013572;28;20028;-63
2021/05/11 11:32:35;;;;;;;3.72;2.20;;;20.90;52.60;;;;;;5014667;28;20548;-64
2021/05/11 11:35:02;;;;;;;3.47;2.00;;;20.90;53.00;;;;;;5007769;28;20041;-61
2021/05/11 11:37:29;;;;;;;3.17;1.90;;;21.00;52.70;;;;;;5011867;28;20037;-62
2021/05/11 11:39:59;;;;;;;3.17;1.92;;;21.00;52.60;;;;;;5016115;28;20124;-63
2021/05/11 11:42:26;;;;;;;2.92;1.95;;;21.00;52.40;;;;;;5017467;28;20456;-63
2021/05/11 11:44:58;;;;;;;3.53;1.85;;;21.10;52.30;;;;;;5014577;28;20121;-64
2021/05/11 11:47:25;;;;;;;3.05;1.70;;;21.10;52.20;;;;;;5013724;28;20520;-64
2021/05/11 11:49:54;;;;;;;2.80;2.20;;;21.20;52.30;;;;;;5008321;28;20543;-61
2021/05/11 12:00:20;;;;;;;3.58;2.35;;;21.40;52.30;;;;;;5011949;28;20072;-62
2021/05/11 12:03:00;;;;;;;4.88;1.95;;;21.40;51.90;;;;;;5015419;28;20030;-63
2021/05/11 12:05:29;;;;;;;6.45;2.22;;;21.50;51.20;;;;;;5014936;28;20314;-62
2021/05/11 12:08:03;;;;;;;4.95;2.25;;;21.50;51.40;;;;;;5013573;28;20866;-62
2021/05/11 12:10:31;;;;;;;7.00;2.00;;;21.60;51.30;;;;;;5013389;28;20033;-63
2021/05/11 12:13:01;;;;;;;5.95;2.25;;;21.70;51.30;;;;;;5016478;28;20488;-62
2021/05/11 12:15:27;;;;;;;5.00;2.35;;;21.70;51.20;;;;;;5016217;28;20035;-61
2021/05/11 12:18:20;;;;;;;5.85;2.60;;;21.80;51.20;;;;;;5017662;28;20038;-61
2021/05/11 12:20:56;;;;;;;3.15;2.50;;;21.80;50.90;;;;;;5016668;28;20523;-60
2021/05/11 12:23:22;;;;;;;3.88;2.40;;;21.80;51.00;;;;;;5015547;28;20783;-62
2021/05/11 12:26:03;;;;;;;3.85;2.47;;;21.80;50.80;;;;;;5016885;28;20049;-62
2021/05/11 12:28:48;;;;;;;8.10;2.58;;;21.90;50.60;;;;;;5016413;28;20041;-61
2021/05/11 12:31:14;;;;;;;2.97;2.20;;;21.90;50.60;;;;;;5013655;28;20033;-61
2021/05/11 12:33:42;;;;;;;5.40;2.50;;;22.00;50.70;;;;;;5017588;28;20091;-62
2021/05/11 12:36:41;;;;;;;3.97;2.42;;;22.10;50.50;;;;;;5019233;28;20079;-62
2021/05/11 12:39:38;;;;;;;2.42;2.10;;;22.20;50.10;;;;;;5012446;28;20034;-63
2021/05/11 12:42:24;;;;;;;3.92;2.63;;;22.20;49.80;;;;;;5016872;28;20033;-63
2021/05/11 12:45:04;;;;;;;6.40;2.70;;;22.30;49.60;;;;;;5016118;28;20059;-61
2021/05/11 12:47:45;;;;;;;3.83;2.10;;;22.40;49.70;;;;;;5010546;28;20034;-63
2021/05/11 12:50:16;;;;;;;6.55;2.60;;;22.40;49.90;;;;;;5013382;28;20496;-64
2021/05/11 12:52:43;;;;;;;5.72;3.00;;;22.50;50.10;;;;;;4998082;28;20034;-64
2021/05/11 12:55:22;;;;;;;3.10;2.33;;;22.50;50.50;;;;;;4993112;28;20046;-66
2021/05/11 12:58:08;;;;;;;4.18;2.45;;;22.40;50.10;;;;;;5017625;28;20030;-64
2021/05/11 13:00:47;;;;;;;3.08;2.55;;;22.40;49.80;;;;;;5016569;28;20120;-65
2021/05/11 13:03:34;;;;;;;2.95;2.72;;;22.40;50.00;;;;;;5012761;28;20041;-62
2021/05/11 13:15:13;;;;;;;3.75;2.95;;;22.40;50.00;;;;;;4954910;28;20030;-60
2021/05/11 13:25:41;;;;;;;4.07;3.15;;;22.40;49.90;;;;;;5017159;28;20072;-66
2021/05/11 13:35:34;;;;;;;4.35;3.33;;;22.40;49.50;;;;;;5015899;28;20036;-65
2021/05/11 13:38:00;;;;;;;5.47;3.67;;;22.40;49.30;;;;;;5021830;28;20083;-66
2021/05/11 13:40:25;;;;;;;5.40;3.90;;;22.40;49.50;;;;;;5017443;28;20494;-66
2021/05/11 13:42:54;;;;;;;5.22;3.25;;;22.40;49.50;;;;;;5003287;28;20030;-66
2021/05/11 13:45:20;;;;;;;6.10;3.60;;;22.30;49.30;;;;;;5010214;28;20571;-65
2021/05/11 13:50:44;;;;;;;5.28;4.35;;;22.30;49.60;;;;;;5010497;28;20021;-64
2021/05/11 13:53:10;;;;;;;4.07;3.45;;;22.30;49.80;;;;;;5011223;28;20030;-64
2021/05/11 14:03:39;;;;;;;4.90;3.65;;;22.20;50.20;;;;;;5010119;28;20049;-63
2021/05/11 14:06:05;;;;;;;4.60;3.47;;;22.20;49.70;;;;;;5012364;28;20033;-64
2021/05/11 14:08:30;;;;;;;5.65;3.65;;;22.20;49.50;;;;;;5014947;28;20057;-63
2021/05/11 14:10:56;;;;;;;5.90;3.67;;;22.20;49.50;;;;;;5014252;28;20107;-64
2021/05/11 14:13:22;;;;;;;6.13;3.72;;;22.20;49.50;;;;;;5019580;28;20116;-64
2021/05/11 14:15:47;;;;;;;4.35;3.80;;;22.20;49.80;;;;;;5015020;28;20120;-64
2021/05/11 14:18:13;;;;;;;4.68;3.65;;;22.20;49.90;;;;;;5019510;28;20174;-64
2021/05/11 14:20:38;;;;;;;5.30;3.40;;;22.20;50.00;;;;;;5016048;28;20603;-63
2021/05/11 14:23:04;;;;;;;6.40;3.90;;;22.20;50.00;;;;;;5018794;28;20060;-64
2021/05/11 14:25:30;;;;;;;5.70;3.55;;;22.20;50.00;;;;;;5012974;28;20038;-64
2021/05/11 14:27:55;;;;;;;6.95;3.60;;;22.20;51.30;;;;;;5008667;28;20040;-64
2021/05/11 14:30:22;;;;;;;4.80;3.47;;;22.00;53.30;;;;;;5013062;28;20034;-63
2021/05/11 14:32:48;;;;;;;20.15;4.95;;;21.60;54.70;;;;;;5015072;28;20041;-64
2021/05/11 14:35:13;;;;;;;7.72;3.42;;;21.30;56.30;;;;;;5016813;28;20469;-63
2021/05/11 14:37:39;;;;;;;5.25;3.50;;;20.80;58.10;;;;;;5014833;28;20400;-63
2021/05/11 14:40:05;;;;;;;5.00;3.42;;;20.40;59.50;;;;;;5016085;28;20052;-64
2021/05/11 14:42:31;;;;;;;20.17;5.65;;;20.00;60.70;;;;;;5000972;28;20028;-63
2021/05/11 14:44:56;;;;;;;13.52;4.18;;;19.70;62.30;;;;;;5014235;28;20142;-64
2021/05/11 14:47:22;;;;;;;5.47;3.70;;;19.40;64.30;;;;;;5010112;28;20025;-63
2021/05/11 14:49:48;;;;;;;10.63;4.07;;;19.10;65.60;;;;;;5015283;28;20029;-63
2021/05/11 14:52:14;;;;;;;7.03;4.10;;;18.90;66.10;;;;;;5001002;28;20049;-64
2021/05/11 14:54:40;;;;;;;9.40;3.92;;;18.80;66.80;;;;;;5017642;28;20748;-64
2021/05/11 14:57:06;;;;;;;8.95;3.88;;;18.60;67.40;;;;;;5011094;28;20060;-63
2021/05/11 14:59:32;;;;;;;8.35;4.47;;;18.50;67.60;;;;;;5010748;28;20156;-64
2021/05/11 15:01:58;;;;;;;5.60;4.47;;;18.40;68.30;;;;;;5013136;28;20041;-64
2021/05/11 15:04:24;;;;;;;6.20;4.00;;;18.30;69.00;;;;;;5009429;28;20071;-64
2021/05/11 15:06:50;;;;;;;6.82;4.18;;;18.20;69.10;;;;;;5014568;28;21252;-65
2021/05/11 15:09:16;;;;;;;5.35;4.70;;;18.10;69.30;;;;;;5008171;28;20025;-66
2021/05/11 15:11:42;;;;;;;8.15;4.82;;;18.00;69.90;;;;;;5015476;28;20047;-66
2021/05/11 15:14:07;;;;;;;6.63;4.82;;;17.90;69.60;;;;;;5013984;28;20029;-64
2021/05/11 15:16:38;;;;;;;6.43;4.60;;;17.90;70.10;;;;;;5015534;28;20022;-65
2021/05/11 15:19:05;;;;;;;5.22;4.72;;;17.80;70.00;;;;;;5011677;28;20120;-64
2021/05/11 15:21:32;;;;;;;8.10;4.82;;;17.70;70.40;;;;;;5017635;28;20030;-64
2021/05/11 15:23:59;;;;;;;12.02;5.25;;;17.70;70.00;;;;;;5018142;28;20029;-62
2021/05/11 15:26:26;;;;;;;7.82;5.00;;;17.70;70.10;;;;;;5016325;28;20042;-61
2021/05/11 15:28:52;;;;;;;5.30;4.65;;;17.70;70.20;;;;;;5012423;28;20041;-62
2021/05/11 15:31:18;;;;;;;8.48;4.53;;;17.70;70.00;;;;;;5011353;28;20034;-63
2021/05/11 15:33:43;;;;;;;5.03;4.53;;;17.70;69.90;;;;;;5014175;28;20025;-63
2021/05/11 15:36:09;;;;;;;8.43;4.85;;;17.70;69.90;;;;;;5010403;28;20068;-63
2021/05/11 15:38:35;;;;;;;7.43;4.43;;;17.70;69.50;;;;;;5013235;28;20113;-60
2021/05/11 15:41:00;;;;;;;7.65;4.63;;;17.70;69.20;;;;;;5010510;28;20052;-64
2021/05/11 15:43:26;;;;;;;6.22;4.68;;;17.70;69.00;;;;;;5013047;28;20558;-64
2021/05/11 15:45:52;;;;;;;6.30;5.07;;;17.70;69.00;;;;;;5016774;28;20021;-64
2021/05/11 15:48:18;;;;;;;7.88;4.68;;;17.70;68.90;;;;;;5007821;28;20402;-64
2021/05/11 15:50:46;;;;;;;5.97;5.20;;;17.70;69.10;;;;;;5010387;28;20060;-64
2021/05/11 15:53:14;;;;;;;6.72;4.75;;;17.70;69.00;;;;;;5006966;28;20030;-66
2021/05/11 15:55:42;;;;;;;5.88;4.45;;;17.70;68.90;;;;;;5015325;28;20076;-64
2021/05/11 15:58:10;;;;;;;7.18;5.03;;;17.60;68.70;;;;;;5019078;28;20033;-64
2021/05/11 16:00:38;;;;;;;5.30;4.47;;;17.70;68.50;;;;;;5020218;28;20037;-64
2021/05/11 16:03:04;;;;;;;6.63;4.55;;;17.70;68.20;;;;;;5012485;28;20116;-64
2021/05/11 16:05:37;;;;;;;6.07;4.55;;;17.70;68.10;;;;;;5018624;28;20067;-64
2021/05/11 16:08:05;;;;;;;7.93;5.28;;;17.70;67.90;;;;;;5017668;28;21011;-64
2021/05/11 16:10:31;;;;;;;6.97;4.95;;;17.70;67.80;;;;;;5017855;28;20021;-64
2021/05/11 16:12:58;;;;;;;12.15;5.40;;;17.60;67.80;;;;;;5021018;28;20029;-64
2021/05/11 16:15:24;;;;;;;8.05;5.18;;;17.60;68.00;;;;;;5016035;28;20064;-64
2021/05/11 16:17:50;;;;;;;5.57;4.70;;;17.60;67.80;;;;;;5017193;28;20108;-64
2021/05/11 16:20:16;;;;;;;7.35;5.40;;;17.60;68.00;;;;;;5019844;28;20120;-64
2021/05/11 16:22:42;;;;;;;7.03;5.07;;;17.60;67.90;;;;;;5023433;28;20033;-65
2021/05/11 16:25:09;;;;;;;5.65;5.05;;;17.60;68.00;;;;;;5010135;28;20030;-65
2021/05/11 16:27:36;;;;;;;7.43;5.13;;;17.60;68.20;;;;;;5020798;28;20071;-64
2021/05/11 16:30:02;;;;;;;5.30;4.80;;;17.60;68.10;;;;;;5031039;28;20032;-64
2021/05/11 16:32:28;;;;;;;6.00;4.97;;;17.50;68.00;;;;;;5011467;28;20411;-64
2021/05/11 16:34:54;;;;;;;5.55;4.93;;;17.60;68.20;;;;;;5016357;28;20116;-64
2021/05/11 16:37:20;;;;;;;7.78;5.35;;;17.50;68.30;;;;;;5017786;28;20068;-64
2021/05/11 16:39:45;;;;;;;6.70;4.68;;;17.60;68.20;;;;;;5025165;28;20065;-64
2021/05/11 16:42:12;;;;;;;7.00;5.05;;;17.60;68.10;;;;;;5026059;28;20393;-64
2021/05/11 16:44:38;;;;;;;6.13;4.57;;;17.60;68.30;;;;;;5024981;28;20069;-64
2021/05/11 16:47:05;;;;;;;7.07;5.05;;;17.60;68.20;;;;;;4987146;28;20463;-64
2021/05/11 16:49:31;;;;;;;6.57;4.72;;;17.60;68.30;;;;;;5027576;28;20085;-64
2021/05/11 16:51:57;;;;;;;6.20;4.72;;;17.60;68.30;;;;;;5027561;28;20057;-64
2021/05/11 16:54:23;;;;;;;6.38;4.80;;;17.60;68.50;;;;;;5028296;28;20072;-64
2021/05/11 16:56:49;;;;;;;7.15;4.95;;;17.60;68.50;;;;;;5012915;28;20064;-64
2021/05/11 16:59:15;;;;;;;5.25;4.70;;;17.60;68.40;;;;;;5019970;28;20140;-64
2021/05/11 17:01:41;;;;;;;5.90;4.50;;;17.60;68.60;;;;;;5025974;28;20109;-64
2021/05/11 17:04:07;;;;;;;6.28;4.80;;;17.60;68.40;;;;;;5028610;28;20033;-64
2021/05/11 17:06:36;;;;;;;5.10;4.50;;;17.60;68.50;;;;;;5020049;28;20321;-66
2021/05/11 17:09:04;;;;;;;6.32;5.03;;;17.60;68.30;;;;;;5030277;28;20030;-65
2021/05/11 17:11:32;;;;;;;7.93;4.53;;;17.60;68.50;;;;;;5031929;28;20112;-65
2021/05/11 17:13:58;;;;;;;5.40;4.40;;;17.70;68.40;;;;;;5011400;28;20025;-66
2021/05/11 17:16:24;;;;;;;5.57;4.90;;;17.70;68.50;;;;;;5032724;28;20017;-65
2021/05/11 17:18:51;;;;;;;6.60;5.22;;;17.70;68.50;;;;;;5027350;28;20446;-66
2021/05/11 17:21:16;;;;;;;5.97;4.40;;;17.70;68.70;;;;;;5010319;28;20033;-65
2021/05/11 17:23:42;;;;;;;4.13;3.83;;;17.70;68.50;;;;;;5020330;28;20022;-65
2021/05/11 17:26:08;;;;;;;8.18;5.20;;;17.70;68.50;;;;;;5020707;28;20040;-65
2021/05/11 17:28:36;;;;;;;5.82;4.72;;;17.70;68.60;;;;;;5015920;28;20026;-65